createdAt,value
2022-12-07T00:00:26.732Z,-0.39
2022-12-07T00:01:26.744Z,-0.39
2022-12-07T00:02:26.764Z,-0.39
2022-12-07T00:03:26.821Z,-0.67
2022-12-07T00:04:26.734Z,-0.39
2022-12-07T00:05:26.729Z,-0.39
2022-12-07T00:06:26.752Z,-0.56
2022-12-07T00:07:28.011Z,-0.39
2022-12-07T00:08:26.770Z,-0.39
2022-12-07T00:09:26.758Z,-0.56
2022-12-07T00:10:26.730Z,-0.39
2022-12-07T00:11:26.759Z,-0.39
2022-12-07T00:12:26.733Z,-0.39
2022-12-07T00:13:26.729Z,-0.39
2022-12-07T00:14:26.728Z,-0.39
2022-12-07T00:15:26.728Z,-0.39
2022-12-07T00:16:26.769Z,-0.56
2022-12-07T00:17:26.739Z,-0.56
2022-12-07T00:18:26.729Z,-0.56
2022-12-07T00:19:26.732Z,-0.39
2022-12-07T00:20:26.733Z,-0.39
2022-12-07T00:21:26.755Z,-0.56
2022-12-07T00:22:26.732Z,-1.11
2022-12-07T00:23:26.737Z,-0.56
2022-12-07T00:24:26.746Z,-0.83
2022-12-07T00:25:26.770Z,-0.83
2022-12-07T00:26:26.744Z,-0.39
2022-12-07T00:27:26.747Z,-0.83
2022-12-07T00:28:26.748Z,-1
2022-12-07T00:29:26.755Z,-0.83
2022-12-07T00:30:26.748Z,-1.11
2022-12-07T00:31:26.811Z,-0.39
2022-12-07T00:32:26.763Z,-0.83
2022-12-07T00:33:26.763Z,-0.28
2022-12-07T00:34:26.764Z,-0.39
2022-12-07T00:35:26.769Z,-0.39
2022-12-07T00:36:27.521Z,-0.67
2022-12-07T00:37:26.788Z,-0.39
2022-12-07T00:38:26.774Z,-0.67
2022-12-07T00:39:26.782Z,-0.39
2022-12-07T00:40:26.769Z,-1
2022-12-07T00:41:26.806Z,-0.39
2022-12-07T00:42:26.781Z,-0.56
2022-12-07T00:43:26.774Z,-0.67
2022-12-07T00:44:26.785Z,-0.83
2022-12-07T00:45:26.788Z,-0.67
2022-12-07T00:46:26.812Z,-0.56
2022-12-07T00:47:26.820Z,-0.67
2022-12-07T00:48:26.792Z,-0.83
2022-12-07T00:49:26.794Z,-0.39
2022-12-07T00:50:26.807Z,-0.83
2022-12-07T00:51:26.805Z,-0.56
2022-12-07T00:52:26.831Z,-0.56
2022-12-07T00:53:26.814Z,-0.83
2022-12-07T00:54:26.797Z,-0.83
2022-12-07T00:55:26.800Z,-1.28
2022-12-07T00:56:26.828Z,-1
2022-12-07T00:57:26.838Z,-0.83
2022-12-07T00:58:26.812Z,-0.83
2022-12-07T00:59:26.805Z,-0.83
2022-12-07T01:00:26.816Z,-0.83
2022-12-07T01:01:26.913Z,-1
2022-12-07T01:02:26.832Z,-0.83
2022-12-07T01:03:26.896Z,-0.83
2022-12-07T01:04:26.832Z,-0.83
2022-12-07T01:05:26.844Z,-0.83
2022-12-07T01:06:26.844Z,-1
2022-12-07T01:07:26.856Z,-1
2022-12-07T01:08:26.830Z,-0.67
2022-12-07T01:09:26.837Z,-1
2022-12-07T01:10:26.828Z,-1.11
2022-12-07T01:11:26.825Z,-1
2022-12-07T01:12:26.840Z,-0.83
2022-12-07T01:13:26.859Z,-0.83
2022-12-07T01:14:26.840Z,-1
2022-12-07T01:15:26.836Z,-0.83
2022-12-07T01:16:26.961Z,-1.11
2022-12-07T01:17:26.848Z,-0.67
2022-12-07T01:18:26.847Z,-0.83
2022-12-07T01:19:26.848Z,-0.67
2022-12-07T01:20:26.839Z,-0.83
2022-12-07T01:21:26.850Z,-0.83
2022-12-07T01:22:26.853Z,-0.83
2022-12-07T01:23:26.853Z,-1
2022-12-07T01:24:26.850Z,-0.67
2022-12-07T01:25:26.856Z,-0.83
2022-12-07T01:26:26.857Z,-0.83
2022-12-07T01:27:26.888Z,-1
2022-12-07T01:28:26.858Z,-0.83
2022-12-07T01:29:26.883Z,-0.83
2022-12-07T01:30:26.964Z,-0.83
2022-12-07T01:31:26.870Z,-0.83
2022-12-07T01:32:26.864Z,-1.11
2022-12-07T01:33:26.873Z,-0.83
2022-12-07T01:34:26.872Z,-0.83
2022-12-07T01:35:26.898Z,-0.83
2022-12-07T01:36:26.871Z,-1
2022-12-07T01:37:26.883Z,-1.28
2022-12-07T01:38:26.902Z,-1
2022-12-07T01:39:26.875Z,-0.83
2022-12-07T01:40:26.882Z,-0.67
2022-12-07T01:41:26.871Z,-1
2022-12-07T01:42:26.880Z,-0.83
2022-12-07T01:43:26.897Z,-0.83
2022-12-07T01:44:26.885Z,-0.83
2022-12-07T01:45:26.901Z,-0.83
2022-12-07T01:46:26.914Z,-0.83
2022-12-07T01:47:26.881Z,-0.67
2022-12-07T01:48:26.885Z,-0.67
2022-12-07T01:49:26.913Z,-1
2022-12-07T01:50:26.897Z,-0.83
2022-12-07T01:51:26.886Z,-0.83
2022-12-07T01:52:26.950Z,-0.83
2022-12-07T01:53:26.892Z,-0.67
2022-12-07T01:54:26.926Z,-0.83
2022-12-07T01:55:26.899Z,-1
2022-12-07T01:56:26.900Z,-1
2022-12-07T01:57:26.926Z,-0.56
2022-12-07T01:58:26.907Z,-0.67
2022-12-07T01:59:26.924Z,-0.83
2022-12-07T02:00:26.907Z,-0.39
2022-12-07T02:01:26.962Z,-0.83
2022-12-07T02:02:26.955Z,-0.39
2022-12-07T02:03:26.908Z,-0.56
2022-12-07T02:04:26.912Z,-0.67
2022-12-07T02:05:26.940Z,-0.67
2022-12-07T02:06:26.913Z,-0.83
2022-12-07T02:07:26.911Z,-1
2022-12-07T02:08:26.949Z,-0.83
2022-12-07T02:09:26.911Z,-0.83
2022-12-07T02:10:26.921Z,-0.83
2022-12-07T02:11:26.915Z,-0.83
2022-12-07T02:12:26.919Z,-0.83
2022-12-07T02:13:26.919Z,-1
2022-12-07T02:14:26.923Z,-0.83
2022-12-07T02:15:26.996Z,-1
2022-12-07T02:16:26.944Z,-1.28
2022-12-07T02:17:26.974Z,-1.56
2022-12-07T02:18:26.930Z,-1.28
2022-12-07T02:19:26.939Z,-1.28
2022-12-07T02:20:26.929Z,-1.56
2022-12-07T02:21:26.928Z,-1.11
2022-12-07T02:22:26.932Z,-1
2022-12-07T02:23:26.935Z,-1.56
2022-12-07T02:24:26.936Z,-0.83
2022-12-07T02:25:26.935Z,-0.83
2022-12-07T02:26:26.938Z,-0.83
2022-12-07T02:27:26.941Z,-0.67
2022-12-07T02:28:26.944Z,-0.67
2022-12-07T02:29:26.966Z,-0.67
2022-12-07T02:30:26.954Z,-0.67
2022-12-07T02:31:27.006Z,-1
2022-12-07T02:32:26.945Z,-0.83
2022-12-07T02:33:26.977Z,-1
2022-12-07T02:34:26.949Z,-0.83
2022-12-07T02:35:26.953Z,-1.11
2022-12-07T02:36:26.954Z,-1
2022-12-07T02:37:26.957Z,-0.67
2022-12-07T02:38:26.957Z,-1.28
2022-12-07T02:39:26.955Z,-0.83
2022-12-07T02:40:26.952Z,-0.83
2022-12-07T02:41:26.954Z,-0.83
2022-12-07T02:42:26.962Z,-0.83
2022-12-07T02:43:26.973Z,-0.83
2022-12-07T02:44:26.958Z,-1.11
2022-12-07T02:45:26.958Z,-1
2022-12-07T02:46:27.019Z,-1.11
2022-12-07T02:47:26.970Z,-1.56
2022-12-07T02:48:26.967Z,-1.11
2022-12-07T02:49:26.988Z,-1.28
2022-12-07T02:50:26.975Z,-1.11
2022-12-07T02:51:26.981Z,-1.44
2022-12-07T02:52:26.978Z,-1.11
2022-12-07T02:53:26.977Z,-1.11
2022-12-07T02:54:26.976Z,-1.11
2022-12-07T02:55:26.997Z,-1.11
2022-12-07T02:56:26.978Z,-1.11
2022-12-07T02:57:26.982Z,-1.28
2022-12-07T02:58:26.988Z,-1.28
2022-12-07T02:59:26.986Z,-1.28
2022-12-07T03:00:26.977Z,-1.56
2022-12-07T03:01:27.084Z,-1.28
2022-12-07T03:02:27.022Z,-1.11
2022-12-07T03:03:26.987Z,-1.28
2022-12-07T03:04:26.993Z,-1.28
2022-12-07T03:05:27.009Z,-1.28
2022-12-07T03:06:26.992Z,-1
2022-12-07T03:07:26.992Z,-0.83
2022-12-07T03:08:27.084Z,-1
2022-12-07T03:09:26.991Z,-1.11
2022-12-07T03:10:26.999Z,-1.11
2022-12-07T03:11:27.019Z,-1
2022-12-07T03:12:26.997Z,-1.56
2022-12-07T03:13:27.024Z,-1
2022-12-07T03:14:26.995Z,-1.56
2022-12-07T03:15:27.000Z,-1.44
2022-12-07T03:16:27.021Z,-1.28
2022-12-07T03:17:26.995Z,-1.44
2022-12-07T03:18:27.002Z,-1.44
2022-12-07T03:19:27.023Z,-1.11
2022-12-07T03:20:27.008Z,-1.28
2022-12-07T03:21:27.047Z,-1.11
2022-12-07T03:22:27.004Z,-1
2022-12-07T03:23:27.009Z,-0.83
2022-12-07T03:24:27.022Z,-1
2022-12-07T03:25:27.006Z,-1
2022-12-07T03:26:27.006Z,-1
2022-12-07T03:27:27.001Z,-0.83
2022-12-07T03:28:27.007Z,-0.83
2022-12-07T03:29:27.016Z,-0.83
2022-12-07T03:30:27.012Z,-1
2022-12-07T03:31:27.097Z,-1.11
2022-12-07T03:32:27.035Z,-0.83
2022-12-07T03:33:27.017Z,-1
2022-12-07T03:34:27.019Z,-0.83
2022-12-07T03:35:27.018Z,-0.83
2022-12-07T03:36:27.036Z,-1
2022-12-07T03:37:27.050Z,-1
2022-12-07T03:38:27.018Z,-1
2022-12-07T03:39:27.021Z,-0.56
2022-12-07T03:40:27.026Z,-1
2022-12-07T03:41:27.027Z,-1
2022-12-07T03:42:27.042Z,-0.83
2022-12-07T03:43:27.034Z,-0.83
2022-12-07T03:44:27.031Z,-0.83
2022-12-07T03:45:27.041Z,-0.83
2022-12-07T03:46:27.046Z,-0.83
2022-12-07T03:47:27.032Z,-1
2022-12-07T03:48:27.041Z,-1
2022-12-07T03:49:27.031Z,-0.83
2022-12-07T03:50:27.039Z,-0.83
2022-12-07T03:51:27.066Z,-1
2022-12-07T03:52:27.035Z,-1.44
2022-12-07T03:53:27.060Z,-1
2022-12-07T03:54:27.046Z,-0.83
2022-12-07T03:55:27.035Z,-1.44
2022-12-07T03:56:27.034Z,-1.28
2022-12-07T03:57:27.042Z,-1
2022-12-07T03:58:27.037Z,-1.11
2022-12-07T03:59:27.048Z,-1.28
2022-12-07T04:00:27.029Z,-1.11
2022-12-07T04:01:27.122Z,-1
2022-12-07T04:02:27.087Z,-0.83
2022-12-07T04:03:27.092Z,-0.83
2022-12-07T04:04:27.045Z,-1.28
2022-12-07T04:05:27.039Z,-1.28
2022-12-07T04:06:27.041Z,-1.11
2022-12-07T04:07:27.045Z,-1
2022-12-07T04:08:27.055Z,-1.28
2022-12-07T04:09:27.073Z,-0.83
2022-12-07T04:10:27.045Z,-1.28
2022-12-07T04:11:27.044Z,-1
2022-12-07T04:12:27.040Z,-0.83
2022-12-07T04:13:27.047Z,-1.11
2022-12-07T04:14:27.044Z,-1
2022-12-07T04:15:27.053Z,-0.83
2022-12-07T04:16:27.117Z,-0.83
2022-12-07T04:17:27.055Z,-1.44
2022-12-07T04:18:27.049Z,-1.28
2022-12-07T04:19:27.043Z,-1
2022-12-07T04:20:27.041Z,-0.83
2022-12-07T04:21:27.040Z,-0.83
2022-12-07T04:22:27.053Z,-1.28
2022-12-07T04:23:27.045Z,-1.28
2022-12-07T04:24:27.049Z,-0.83
2022-12-07T04:25:27.076Z,-1
2022-12-07T04:26:27.055Z,-0.83
2022-12-07T04:27:27.049Z,-0.56
2022-12-07T04:28:27.054Z,-0.83
2022-12-07T04:29:27.044Z,-0.83
2022-12-07T04:30:27.053Z,-0.83
2022-12-07T04:31:27.115Z,-1.11
2022-12-07T04:32:27.069Z,-0.83
2022-12-07T04:33:27.053Z,-0.67
2022-12-07T04:34:27.056Z,-0.83
2022-12-07T04:35:27.062Z,-0.83
2022-12-07T04:36:27.058Z,-1.28
2022-12-07T04:37:27.061Z,-0.83
2022-12-07T04:38:27.068Z,-0.83
2022-12-07T04:39:27.070Z,-0.67
2022-12-07T04:40:27.079Z,-1
2022-12-07T04:41:27.106Z,-0.83
2022-12-07T04:42:27.085Z,-0.67
2022-12-07T04:43:27.094Z,-0.83
2022-12-07T04:44:27.080Z,-0.56
2022-12-07T04:45:27.083Z,-0.56
2022-12-07T04:46:27.127Z,-0.67
2022-12-07T04:47:27.093Z,-0.83
2022-12-07T04:48:27.104Z,-0.67
2022-12-07T04:49:27.092Z,-0.83
2022-12-07T04:50:27.097Z,-0.83
2022-12-07T04:51:27.087Z,-1.11
2022-12-07T04:52:27.102Z,-0.83
2022-12-07T04:53:27.097Z,-0.67
2022-12-07T04:54:27.110Z,-0.67
2022-12-07T04:55:27.105Z,-0.83
2022-12-07T04:56:27.122Z,-0.67
2022-12-07T04:57:27.134Z,-0.67
2022-12-07T04:58:27.106Z,-0.39
2022-12-07T04:59:27.107Z,-1
2022-12-07T05:00:27.149Z,-0.56
2022-12-07T05:01:27.137Z,-0.39
2022-12-07T05:02:27.226Z,-0.39
2022-12-07T05:03:27.121Z,-0.67
2022-12-07T05:04:27.121Z,-0.67
2022-12-07T05:05:27.123Z,-0.56
2022-12-07T05:06:27.241Z,-0.67
2022-12-07T05:07:27.125Z,-0.67
2022-12-07T05:08:27.136Z,-0.83
2022-12-07T05:09:27.125Z,-0.56
2022-12-07T05:10:27.130Z,-0.83
2022-12-07T05:11:27.136Z,-0.83
2022-12-07T05:12:27.135Z,-0.56
2022-12-07T05:13:27.171Z,-0.67
2022-12-07T05:14:27.169Z,-0.83
2022-12-07T05:15:27.148Z,-0.39
2022-12-07T05:16:27.220Z,-0.83
2022-12-07T05:17:27.157Z,-0.56
2022-12-07T05:18:27.170Z,-0.56
2022-12-07T05:19:27.169Z,-0.83
2022-12-07T05:20:27.158Z,-0.56
2022-12-07T05:21:27.153Z,-0.67
2022-12-07T05:22:27.165Z,-1
2022-12-07T05:23:27.174Z,-1
2022-12-07T05:24:27.163Z,-0.67
2022-12-07T05:25:27.175Z,-0.56
2022-12-07T05:26:27.176Z,-1
2022-12-07T05:27:27.181Z,-0.56
2022-12-07T05:28:27.186Z,-0.56
2022-12-07T05:29:27.211Z,-1
2022-12-07T05:30:27.180Z,-0.56
2022-12-07T05:31:27.298Z,-0.83
2022-12-07T05:32:27.197Z,-0.83
2022-12-07T05:33:27.204Z,-0.56
2022-12-07T05:34:27.191Z,-0.39
2022-12-07T05:35:27.186Z,-0.83
2022-12-07T05:36:27.184Z,-0.39
2022-12-07T05:37:27.191Z,-0.56
2022-12-07T05:38:27.201Z,-0.39
2022-12-07T05:39:27.191Z,-0.56
2022-12-07T05:40:27.188Z,-0.39
2022-12-07T05:41:27.233Z,-0.83
2022-12-07T05:42:27.197Z,-1.11
2022-12-07T05:43:27.209Z,-1
2022-12-07T05:44:27.216Z,-0.39
2022-12-07T05:45:27.288Z,-0.56
2022-12-07T05:46:27.230Z,-0.39
2022-12-07T05:47:27.216Z,-1
2022-12-07T05:48:27.245Z,-0.39
2022-12-07T05:49:27.218Z,-0.56
2022-12-07T05:50:27.224Z,-0.67
2022-12-07T05:51:27.222Z,-0.39
2022-12-07T05:52:27.227Z,-0.39
2022-12-07T05:53:27.230Z,-0.67
2022-12-07T05:54:27.227Z,-0.56
2022-12-07T05:55:27.230Z,-0.39
2022-12-07T05:56:27.233Z,-0.39
2022-12-07T05:57:27.231Z,-0.67
2022-12-07T05:58:27.242Z,-0.67
2022-12-07T05:59:27.243Z,-0.67
2022-12-07T06:00:27.245Z,-0.83
2022-12-07T06:01:27.264Z,-0.67
2022-12-07T06:02:27.384Z,-0.39
2022-12-07T06:03:27.302Z,-0.39
2022-12-07T06:04:27.267Z,-0.39
2022-12-07T06:05:27.251Z,-0.39
2022-12-07T06:06:27.315Z,-0.67
2022-12-07T06:07:27.245Z,-0.39
2022-12-07T06:08:27.324Z,-0.56
2022-12-07T06:09:27.269Z,-0.56
2022-12-07T06:10:27.259Z,-0.39
2022-12-07T06:11:27.247Z,-0.56
2022-12-07T06:12:27.254Z,-0.39
2022-12-07T06:13:27.258Z,-0.56
2022-12-07T06:14:27.275Z,-0.56
2022-12-07T06:15:27.253Z,-0.56
2022-12-07T06:16:27.285Z,-0.56
2022-12-07T06:17:27.268Z,-0.67
2022-12-07T06:18:27.268Z,-0.56
2022-12-07T06:19:27.266Z,-0.39
2022-12-07T06:20:27.265Z,-0.39
2022-12-07T06:21:27.266Z,-0.67
2022-12-07T06:22:27.261Z,-0.39
2022-12-07T06:23:27.266Z,-0.39
2022-12-07T06:24:27.279Z,-0.67
2022-12-07T06:25:27.264Z,-0.39
2022-12-07T06:26:27.270Z,-0.56
2022-12-07T06:27:27.264Z,-0.39
2022-12-07T06:28:27.305Z,-0.39
2022-12-07T06:29:27.279Z,-0.39
2022-12-07T06:30:27.273Z,-0.28
2022-12-07T06:31:27.304Z,-0.67
2022-12-07T06:32:27.268Z,-0.39
2022-12-07T06:33:27.299Z,-0.28
2022-12-07T06:34:27.275Z,-0.28
2022-12-07T06:35:27.277Z,-0.39
2022-12-07T06:36:27.484Z,-0.39
2022-12-07T06:37:27.265Z,-0.56
2022-12-07T06:38:27.268Z,-0.39
2022-12-07T06:39:27.276Z,-0.56
2022-12-07T06:40:27.308Z,-0.39
2022-12-07T06:41:27.273Z,-0.39
2022-12-07T06:42:27.281Z,-0.28
2022-12-07T06:43:27.280Z,-0.28
2022-12-07T06:44:27.276Z,-0.39
2022-12-07T06:45:27.268Z,-0.17
2022-12-07T06:46:27.359Z,-0.17
2022-12-07T06:47:43.809Z,-0.28
2022-12-07T06:48:27.276Z,-0.39
2022-12-07T06:49:27.308Z,-0.28
2022-12-07T06:50:27.268Z,-0.28
2022-12-07T06:51:27.265Z,-0.39
2022-12-07T06:52:27.283Z,0
2022-12-07T06:53:27.277Z,0
2022-12-07T06:54:27.273Z,-0.17
2022-12-07T06:55:27.269Z,-0.56
2022-12-07T06:56:27.276Z,-0.28
2022-12-07T06:57:27.276Z,0
2022-12-07T06:58:27.289Z,-0.17
2022-12-07T06:59:27.273Z,-0.28
2022-12-07T07:00:27.279Z,-0.17
2022-12-07T07:01:27.393Z,-0.17
2022-12-07T07:02:27.335Z,-0.17
2022-12-07T07:03:27.276Z,-0.39
2022-12-07T07:04:27.268Z,-0.28
2022-12-07T07:05:27.311Z,0
2022-12-07T07:06:27.274Z,-0.28
2022-12-07T07:07:27.266Z,0
2022-12-07T07:08:27.373Z,-0.56
2022-12-07T07:09:27.285Z,0
2022-12-07T07:10:27.286Z,0
2022-12-07T07:11:27.272Z,-0.17
2022-12-07T07:12:27.277Z,0
2022-12-07T07:13:27.289Z,0
2022-12-07T07:14:27.276Z,-0.17
2022-12-07T07:15:27.272Z,-0.17
2022-12-07T07:16:27.485Z,0
2022-12-07T07:17:27.282Z,0
2022-12-07T07:18:27.276Z,-0.17
2022-12-07T07:19:27.286Z,0.17
2022-12-07T07:20:27.279Z,0
2022-12-07T07:21:27.322Z,-0.17
2022-12-07T07:22:27.272Z,-0.17
2022-12-07T07:23:27.280Z,0
2022-12-07T07:24:27.292Z,0.17
2022-12-07T07:25:27.302Z,0.17
2022-12-07T07:26:27.290Z,0
2022-12-07T07:27:27.285Z,0.17
2022-12-07T07:28:27.290Z,0
2022-12-07T07:29:27.271Z,0
2022-12-07T07:30:27.330Z,-0.28
2022-12-07T07:31:27.382Z,-0.17
2022-12-07T07:32:27.280Z,0
2022-12-07T07:33:27.283Z,0.17
2022-12-07T07:34:27.282Z,0
2022-12-07T07:35:27.275Z,0.17
2022-12-07T07:36:27.286Z,-0.28
2022-12-07T07:37:27.313Z,0
2022-12-07T07:38:27.284Z,-0.17
2022-12-07T07:39:27.287Z,0.17
2022-12-07T07:40:27.300Z,0.17
2022-12-07T07:41:27.282Z,0.17
2022-12-07T07:42:27.283Z,0.28
2022-12-07T07:43:27.285Z,0
2022-12-07T07:44:31.714Z,0.17
2022-12-07T07:45:27.284Z,0
2022-12-07T07:46:27.336Z,-0.17
2022-12-07T07:47:27.290Z,-0.17
2022-12-07T07:48:27.285Z,-0.17
2022-12-07T07:49:27.284Z,0
2022-12-07T07:50:27.376Z,0
2022-12-07T07:51:27.280Z,0.17
2022-12-07T07:52:27.299Z,-0.17
2022-12-07T07:53:27.317Z,-0.28
2022-12-07T07:54:27.287Z,-0.56
2022-12-07T07:55:27.281Z,-0.39
2022-12-07T07:56:27.284Z,-0.39
2022-12-07T07:57:27.287Z,-0.56
2022-12-07T07:58:27.291Z,-0.39
2022-12-07T07:59:27.295Z,-0.39
2022-12-07T08:00:27.324Z,-0.39
2022-12-07T08:01:27.355Z,-0.17
2022-12-07T08:02:27.276Z,-0.39
2022-12-07T08:03:27.285Z,-0.28
2022-12-07T08:04:27.364Z,-0.39
2022-12-07T08:05:27.296Z,-0.28
2022-12-07T08:06:31.932Z,0
2022-12-07T08:07:27.280Z,-0.28
2022-12-07T08:08:27.381Z,0
2022-12-07T08:09:27.303Z,-0.28
2022-12-07T08:10:27.348Z,-0.17
2022-12-07T08:11:27.293Z,-0.17
2022-12-07T08:12:27.282Z,0
2022-12-07T08:13:30.903Z,-0.17
2022-12-07T08:14:27.298Z,-0.17
2022-12-07T08:15:27.291Z,0
2022-12-07T08:16:27.389Z,0
2022-12-07T08:17:27.282Z,0
2022-12-07T08:18:27.291Z,0.17
2022-12-07T08:19:27.286Z,0.17
2022-12-07T08:20:27.379Z,-0.17
2022-12-07T08:21:27.280Z,0.17
2022-12-07T08:22:27.290Z,0.17
2022-12-07T08:23:32.599Z,0
2022-12-07T08:24:27.287Z,0.28
2022-12-07T08:25:27.314Z,0.17
2022-12-07T08:26:27.346Z,0
2022-12-07T08:27:27.288Z,0.28
2022-12-07T08:28:27.298Z,0
2022-12-07T08:29:27.294Z,0.28
2022-12-07T08:30:27.293Z,0.17
2022-12-07T08:31:27.353Z,0
2022-12-07T08:32:27.277Z,0.17
2022-12-07T08:33:27.289Z,0
2022-12-07T08:34:27.318Z,0
2022-12-07T08:35:27.288Z,0
2022-12-07T08:36:27.310Z,-0.17
2022-12-07T08:37:27.293Z,0.17
2022-12-07T08:38:31.485Z,-0.17
2022-12-07T08:39:31.954Z,-0.17
2022-12-07T08:40:27.402Z,-0.28
2022-12-07T08:41:27.303Z,-0.17
2022-12-07T08:42:27.290Z,-0.17
2022-12-07T08:43:27.290Z,-0.17
2022-12-07T08:44:27.289Z,0
2022-12-07T08:45:27.859Z,-0.17
2022-12-07T08:46:27.351Z,0
2022-12-07T08:47:27.290Z,-0.17
2022-12-07T08:48:27.296Z,0
2022-12-07T08:49:27.287Z,0
2022-12-07T08:50:27.289Z,-0.17
2022-12-07T08:51:27.277Z,-0.17
2022-12-07T08:52:27.297Z,-0.17
2022-12-07T08:53:27.285Z,0
2022-12-07T08:54:27.288Z,0.28
2022-12-07T08:55:27.316Z,0
2022-12-07T08:56:27.285Z,0
2022-12-07T08:57:27.323Z,0.28
2022-12-07T08:58:27.298Z,0.44
2022-12-07T08:59:27.287Z,0.44
2022-12-07T09:00:27.294Z,0.44
2022-12-07T09:01:27.299Z,0.17
2022-12-07T09:02:27.283Z,0
2022-12-07T09:03:27.287Z,0
2022-12-07T09:04:27.302Z,0.17
2022-12-07T09:05:27.410Z,0.17
2022-12-07T09:06:27.340Z,0.17
2022-12-07T09:07:27.288Z,0.28
2022-12-07T09:08:27.379Z,0.17
2022-12-07T09:09:27.295Z,0
2022-12-07T09:10:27.304Z,0.28
2022-12-07T09:11:28.942Z,0.28
2022-12-07T09:12:27.294Z,0.44
2022-12-07T09:13:27.318Z,0.17
2022-12-07T09:14:27.289Z,0.17
2022-12-07T09:15:27.291Z,0.17
2022-12-07T09:16:27.372Z,0.44
2022-12-07T09:17:27.308Z,0.17
2022-12-07T09:18:27.290Z,0
2022-12-07T09:19:27.291Z,0.44
2022-12-07T09:20:28.180Z,0.28
2022-12-07T09:21:27.290Z,0.28
2022-12-07T09:22:27.292Z,0.17
2022-12-07T09:23:27.290Z,0.44
2022-12-07T09:24:27.294Z,0.44
2022-12-07T09:25:27.301Z,0.61
2022-12-07T09:26:27.297Z,0.44
2022-12-07T09:27:27.382Z,0.44
2022-12-07T09:28:27.291Z,0.44
2022-12-07T09:29:27.334Z,0.28
2022-12-07T09:30:27.296Z,0.28
2022-12-07T09:31:27.512Z,0.28
2022-12-07T09:32:27.362Z,0.28
2022-12-07T09:33:27.301Z,0.44
2022-12-07T09:34:27.380Z,0.44
2022-12-07T09:35:27.285Z,0.28
2022-12-07T09:36:27.352Z,0.44
2022-12-07T09:37:27.302Z,0
2022-12-07T09:38:27.306Z,0.44
2022-12-07T09:39:27.296Z,0.28
2022-12-07T09:40:27.295Z,0.28
2022-12-07T09:41:27.292Z,0.44
2022-12-07T09:42:27.393Z,0.72
2022-12-07T09:43:27.292Z,0.44
2022-12-07T09:44:27.307Z,0.72
2022-12-07T09:45:27.317Z,0.28
2022-12-07T09:46:27.389Z,0.44
2022-12-07T09:47:27.298Z,0.44
2022-12-07T09:48:27.297Z,0.28
2022-12-07T09:49:27.298Z,0.17
2022-12-07T09:50:27.294Z,0.44
2022-12-07T09:51:27.295Z,0.44
2022-12-07T09:52:27.294Z,0.44
2022-12-07T09:53:27.289Z,0.44
2022-12-07T09:54:27.315Z,0.28
2022-12-07T09:55:27.298Z,0.28
2022-12-07T09:56:27.311Z,-0.28
2022-12-07T09:57:27.289Z,0.61
2022-12-07T09:58:27.304Z,0.61
2022-12-07T09:59:28.605Z,1.06
2022-12-07T10:00:27.291Z,1.06
2022-12-07T10:01:27.401Z,1.17
2022-12-07T10:02:27.302Z,1.06
2022-12-07T10:03:27.289Z,1.17
2022-12-07T10:04:27.333Z,1.06
2022-12-07T10:05:27.349Z,1.33
2022-12-07T10:06:27.304Z,1.17
2022-12-07T10:07:27.300Z,0.89
2022-12-07T10:08:27.374Z,1.06
2022-12-07T10:09:27.302Z,1.06
2022-12-07T10:10:27.301Z,1.06
2022-12-07T10:11:27.315Z,1.06
2022-12-07T10:12:27.299Z,1.06
2022-12-07T10:14:38.220Z,1.33
2022-12-07T10:15:25.606Z,1.17
2022-12-07T10:16:25.666Z,1.06
2022-12-07T10:17:25.542Z,1.33
2022-12-07T10:18:25.517Z,1.72
2022-12-07T10:19:25.514Z,1.61
2022-12-07T10:20:25.524Z,1.5
2022-12-07T10:21:25.540Z,1.61
2022-12-07T10:22:30.421Z,1.61
2022-12-07T10:23:25.531Z,1.72
2022-12-07T10:24:25.526Z,1.5
2022-12-07T10:25:25.533Z,1.61
2022-12-07T10:26:25.535Z,1.61
2022-12-07T10:27:25.532Z,1.72
2022-12-07T10:28:25.538Z,1.72
2022-12-07T10:29:25.546Z,1.72
2022-12-07T10:30:25.541Z,1.5
2022-12-07T10:31:25.630Z,1.33
2022-12-07T10:32:25.539Z,1.5
2022-12-07T10:33:25.564Z,1.17
2022-12-07T10:34:25.535Z,1.33
2022-12-07T10:35:25.544Z,1.5
2022-12-07T10:36:25.557Z,1.61
2022-12-07T10:37:25.543Z,1.33
2022-12-07T10:38:25.558Z,1.06
2022-12-07T10:39:25.550Z,1.33
2022-12-07T10:40:25.553Z,1.5
2022-12-07T10:41:25.543Z,1.33
2022-12-07T10:42:25.557Z,1.33
2022-12-07T10:43:25.559Z,1.61
2022-12-07T10:44:25.547Z,1.72
2022-12-07T10:45:25.593Z,1.89
2022-12-07T10:46:25.633Z,1.89
2022-12-07T10:47:25.670Z,2
2022-12-07T10:48:25.563Z,2.17
2022-12-07T10:49:25.581Z,1.89
2022-12-07T10:50:25.560Z,1.72
2022-12-07T10:51:25.561Z,1.89
2022-12-07T10:52:25.558Z,1.61
2022-12-07T10:53:25.551Z,1.89
2022-12-07T10:54:25.568Z,1.89
2022-12-07T10:55:25.571Z,1.5
2022-12-07T10:56:25.585Z,1.61
2022-12-07T10:57:25.580Z,1.33
2022-12-07T10:58:25.576Z,1.72
2022-12-07T10:59:25.577Z,1.72
2022-12-07T11:00:25.580Z,2.28
2022-12-07T11:01:25.619Z,2
2022-12-07T11:02:25.608Z,1.72
2022-12-07T11:03:25.591Z,2
2022-12-07T11:04:25.587Z,1.89
2022-12-07T11:05:25.602Z,2
2022-12-07T11:06:25.581Z,1.89
2022-12-07T11:07:25.589Z,1.89
2022-12-07T11:08:25.718Z,1.61
2022-12-07T11:09:38.911Z,2
2022-12-07T11:10:25.872Z,2
2022-12-07T11:11:25.585Z,2
2022-12-07T11:12:25.607Z,2.17
2022-12-07T11:13:28.591Z,2.61
2022-12-07T11:14:25.594Z,2.44
2022-12-07T11:15:25.594Z,1.89
2022-12-07T11:16:25.662Z,2.28
2022-12-07T11:17:25.593Z,2.28
2022-12-07T11:18:25.597Z,2.17
2022-12-07T11:19:28.347Z,2.17
2022-12-07T11:20:25.602Z,2.17
2022-12-07T11:21:25.619Z,2
2022-12-07T11:22:25.605Z,2.28
2022-12-07T11:23:25.605Z,2
2022-12-07T11:24:25.609Z,1.72
2022-12-07T11:25:28.723Z,1.72
2022-12-07T11:26:25.606Z,1.61
2022-12-07T11:27:25.607Z,1.89
2022-12-07T11:28:25.619Z,1.89
2022-12-07T11:29:25.620Z,1.89
2022-12-07T11:30:25.612Z,1.89
2022-12-07T11:31:29.169Z,1.72
2022-12-07T11:32:25.612Z,1.72
2022-12-07T11:33:25.620Z,1.72
2022-12-07T11:34:25.622Z,1.89
2022-12-07T11:35:25.615Z,1.89
2022-12-07T11:36:25.622Z,1.61
2022-12-07T11:37:25.642Z,1.72
2022-12-07T11:38:26.428Z,2
2022-12-07T11:39:25.612Z,1.5
2022-12-07T11:40:25.629Z,1.89
2022-12-07T11:41:25.617Z,2.17
2022-12-07T11:42:25.624Z,1.89
2022-12-07T11:43:25.627Z,2.28
2022-12-07T11:44:27.452Z,2.17
2022-12-07T11:45:25.630Z,2.17
2022-12-07T11:46:25.659Z,2.17
2022-12-07T11:47:25.625Z,2
2022-12-07T11:48:25.632Z,2.17
2022-12-07T11:49:25.631Z,2
2022-12-07T11:50:25.838Z,1.72
2022-12-07T11:51:29.071Z,1.89
2022-12-07T11:52:25.632Z,2
2022-12-07T11:53:25.675Z,1.89
2022-12-07T11:54:25.634Z,2
2022-12-07T11:55:25.633Z,2
2022-12-07T11:56:25.647Z,2.44
2022-12-07T11:57:25.650Z,2.17
2022-12-07T11:58:25.640Z,2.17
2022-12-07T11:59:25.649Z,2
2022-12-07T12:00:25.644Z,1.72
2022-12-07T12:01:25.646Z,1.89
2022-12-07T12:02:25.699Z,1.61
2022-12-07T12:03:25.717Z,1.72
2022-12-07T12:04:25.648Z,2
2022-12-07T12:05:25.670Z,2.11
2022-12-07T12:06:25.644Z,1.89
2022-12-07T12:09:41.374Z,1.89
2022-12-07T12:10:25.653Z,1.72
2022-12-07T12:11:25.646Z,1.72
2022-12-07T12:14:33.147Z,2.17
2022-12-07T12:15:25.659Z,2
2022-12-07T12:16:25.664Z,2.11
2022-12-07T12:17:25.660Z,2.28
2022-12-07T12:18:25.655Z,2.44
2022-12-07T12:19:25.656Z,2.61
2022-12-07T12:20:25.655Z,2.28
2022-12-07T12:21:25.649Z,2.28
2022-12-07T12:22:25.658Z,2.44
2022-12-07T12:23:25.650Z,2.28
2022-12-07T12:24:25.662Z,2.61
2022-12-07T12:25:25.681Z,2.61
2022-12-07T12:26:25.702Z,2.61
2022-12-07T12:27:25.712Z,2.94
2022-12-07T12:28:25.663Z,2.61
2022-12-07T12:29:25.665Z,2.39
2022-12-07T12:30:25.674Z,2.39
2022-12-07T12:31:25.720Z,2.44
2022-12-07T12:32:25.714Z,2.39
2022-12-07T12:33:25.667Z,2.28
2022-12-07T12:34:25.672Z,2.39
2022-12-07T12:35:25.673Z,2.39
2022-12-07T12:36:25.787Z,2.11
2022-12-07T12:37:25.694Z,2.39
2022-12-07T12:38:25.667Z,2.44
2022-12-07T12:39:25.678Z,2.67
2022-12-07T12:40:25.686Z,2.83
2022-12-07T12:41:25.706Z,2.39
2022-12-07T12:42:25.687Z,2.72
2022-12-07T12:43:25.684Z,3.11
2022-12-07T12:44:25.684Z,2.89
2022-12-07T12:45:25.682Z,3.28
2022-12-07T12:46:25.727Z,3
2022-12-07T12:47:25.692Z,2.83
2022-12-07T12:48:25.679Z,2.83
2022-12-07T12:49:25.697Z,2.72
2022-12-07T12:50:25.691Z,2.39
2022-12-07T12:51:25.695Z,2.56
2022-12-07T12:52:25.693Z,2.39
2022-12-07T12:53:25.733Z,2.83
2022-12-07T12:54:25.696Z,2.83
2022-12-07T12:55:25.690Z,2.83
2022-12-07T12:56:25.689Z,3.11
2022-12-07T12:57:25.720Z,3.11
2022-12-07T12:58:25.687Z,3.11
2022-12-07T12:59:25.690Z,3.11
2022-12-07T13:00:25.706Z,2.72
2022-12-07T13:01:25.729Z,3.39
2022-12-07T13:02:25.769Z,3.56
2022-12-07T13:03:25.696Z,3.67
2022-12-07T13:04:25.696Z,4
2022-12-07T13:05:25.697Z,4.11
2022-12-07T13:06:25.713Z,4
2022-12-07T13:07:25.715Z,4.44
2022-12-07T13:08:29.306Z,4.78
2022-12-07T13:09:25.702Z,4.22
2022-12-07T13:10:25.715Z,4.44
2022-12-07T13:11:25.711Z,4.44
2022-12-07T13:12:25.709Z,4.56
2022-12-07T13:13:25.723Z,4.56
2022-12-07T13:14:28.481Z,3.78
2022-12-07T13:15:25.724Z,3.56
2022-12-07T13:16:25.738Z,3.56
2022-12-07T13:17:25.713Z,3.11
2022-12-07T13:18:25.713Z,3.11
2022-12-07T13:19:25.706Z,3.39
2022-12-07T13:20:25.716Z,3.28